sensor_id;sensor_type;location;lat;lon;timestamp;pressure;altitude;pressure_sealevel;temperature;humidity
68628;BME280;55611;48.602;9.490;2023-01-28T00:00:41;97390;;;3.1;62
68628;BME280;55611;48.602;9.490;2023-01-28T00:03:12;97390;;;3;62
68628;BME280;55611;48.602;9.490;2023-01-28T00:10:43;97380;;;3.1;62
68628;BME280;55611;48.602;9.490;2023-01-28T00:15:44;97380;;;3;62
68628;BME280;55611;48.602;9.490;2023-01-28T00:18:14;97380;;;3;62
68628;BME280;55611;48.602;9.490;2023-01-28T00:20:54;97380;;;2.9;62
68628;BME280;55611;48.602;9.490;2023-01-28T00:23:15;97380;;;3;62
68628;BME280;55611;48.602;9.490;2023-01-28T00:25:46;97370;;;3.1;62
68628;BME280;55611;48.602;9.490;2023-01-28T00:28:17;97370;;;3;62
68628;BME280;55611;48.602;9.490;2023-01-28T00:33:17;97380;;;2.9;62
68628;BME280;55611;48.602;9.490;2023-01-28T00:35:56;97380;;;2.9;62
68628;BME280;55611;48.602;9.490;2023-01-28T00:45:49;97370;;;2.9;62
68628;BME280;55611;48.602;9.490;2023-01-28T00:48:20;97370;;;3;62
68628;BME280;55611;48.602;9.490;2023-01-28T00:55:51;97370;;;3;62
68628;BME280;55611;48.602;9.490;2023-01-28T01:00:52;97370;;;3;62
68628;BME280;55611;48.602;9.490;2023-01-28T01:03:22;97370;;;3;62
68628;BME280;55611;48.602;9.490;2023-01-28T01:05:53;97380;;;3;62
68628;BME280;55611;48.602;9.490;2023-01-28T01:13:24;97370;;;3;62
68628;BME280;55611;48.602;9.490;2023-01-28T01:20:55;97380;;;2.8;62
68628;BME280;55611;48.602;9.490;2023-01-28T01:23:26;97380;;;2.9;62
68628;BME280;55611;48.602;9.490;2023-01-28T01:25:56;97380;;;2.9;62
68628;BME280;55611;48.602;9.490;2023-01-28T01:30:58;97380;;;3;62
68628;BME280;55611;48.602;9.490;2023-01-28T01:33:28;97380;;;2.9;62
68628;BME280;55611;48.602;9.490;2023-01-28T01:35:58;97390;;;2.9;62
68628;BME280;55611;48.602;9.490;2023-01-28T01:38:28;97390;;;3;62
68628;BME280;55611;48.602;9.490;2023-01-28T01:44:01;97400;;;2.9;62
68628;BME280;55611;48.602;9.490;2023-01-28T01:46:00;97400;;;2.9;62
68628;BME280;55611;48.602;9.490;2023-01-28T01:48:31;97400;;;2.9;62
68628;BME280;55611;48.602;9.490;2023-01-28T01:51:03;97400;;;3;62
68628;BME280;55611;48.602;9.490;2023-01-28T01:53:31;97410;;;3.1;62
68628;BME280;55611;48.602;9.490;2023-01-28T02:01:03;97400;;;3;62
68628;BME280;55611;48.602;9.490;2023-01-28T02:03:43;97410;;;2.9;62
68628;BME280;55611;48.602;9.490;2023-01-28T02:08:34;97410;;;3.1;62
68628;BME280;55611;48.602;9.490;2023-01-28T02:11:05;97410;;;3;62
68628;BME280;55611;48.602;9.490;2023-01-28T02:13:36;97410;;;3.1;62
68628;BME280;55611;48.602;9.490;2023-01-28T02:16:05;97410;;;3;62
68628;BME280;55611;48.602;9.490;2023-01-28T02:34:13;97420;;;2.9;62
68628;BME280;55611;48.602;9.490;2023-01-28T02:36:15;97420;;;2.8;62
68628;BME280;55611;48.602;9.490;2023-01-28T02:38:40;97420;;;2.9;62
68628;BME280;55611;48.602;9.490;2023-01-28T02:43:42;97410;;;3;62
68628;BME280;55611;48.602;9.490;2023-01-28T02:46:33;97410;;;2.9;62
68628;BME280;55611;48.602;9.490;2023-01-28T02:48:40;97410;;;3;61.5
68628;BME280;55611;48.602;9.490;2023-01-28T02:51:16;97410;;;2.9;61.5
68628;BME280;55611;48.602;9.490;2023-01-28T02:53:44;97410;;;2.9;62
68628;BME280;55611;48.602;9.490;2023-01-28T02:56:15;97410;;;3;62
68628;BME280;55611;48.602;9.490;2023-01-28T02:58:46;97410;;;3;61.5
68628;BME280;55611;48.602;9.490;2023-01-28T03:01:17;97410;;;3.1;61.5
68628;BME280;55611;48.602;9.490;2023-01-28T03:03:48;97410;;;3.1;61.5
68628;BME280;55611;48.602;9.490;2023-01-28T03:06:15;97410;;;3;61.5
68628;BME280;55611;48.602;9.490;2023-01-28T03:16:15;97420;;;2.9;62
68628;BME280;55611;48.602;9.490;2023-01-28T03:21:33;97410;;;3;62
68628;BME280;55611;48.602;9.490;2023-01-28T03:26:17;97420;;;3;61.5
68628;BME280;55611;48.602;9.490;2023-01-28T03:28:48;97420;;;3;61.5
68628;BME280;55611;48.602;9.490;2023-01-28T03:31:18;97420;;;3.1;61.5
68628;BME280;55611;48.602;9.490;2023-01-28T03:33:49;97420;;;3.1;61.5
68628;BME280;55611;48.602;9.490;2023-01-28T03:36:19;97420;;;3.1;61.5
68628;BME280;55611;48.602;9.490;2023-01-28T03:38:50;97420;;;3;61.5
68628;BME280;55611;48.602;9.490;2023-01-28T03:41:21;97420;;;3;62
68628;BME280;55611;48.602;9.490;2023-01-28T03:43:51;97420;;;3;62
68628;BME280;55611;48.602;9.490;2023-01-28T03:46:21;97420;;;3.1;61.5
68628;BME280;55611;48.602;9.490;2023-01-28T03:53:52;97430;;;3.1;61.5
68628;BME280;55611;48.602;9.490;2023-01-28T03:56:23;97430;;;3.1;61.5
68628;BME280;55611;48.602;9.490;2023-01-28T03:58:53;97430;;;3.2;61.5
68628;BME280;55611;48.602;9.490;2023-01-28T04:01:24;97430;;;3;61.5
68628;BME280;55611;48.602;9.490;2023-01-28T04:08:55;97430;;;3.1;61.5
68628;BME280;55611;48.602;9.490;2023-01-28T04:13:56;97430;;;3.2;61.5
68628;BME280;55611;48.602;9.490;2023-01-28T04:16:26;97430;;;3.2;61.5
68628;BME280;55611;48.602;9.490;2023-01-28T04:18:57;97430;;;3.2;61.5
68628;BME280;55611;48.602;9.490;2023-01-28T04:21:27;97440;;;3.2;61.5
68628;BME280;55611;48.602;9.490;2023-01-28T04:36:32;97450;;;3.2;61.5
68628;BME280;55611;48.602;9.490;2023-01-28T04:39:00;97450;;;3.2;61.5
68628;BME280;55611;48.602;9.490;2023-01-28T04:41:30;97450;;;3.2;61.5
68628;BME280;55611;48.602;9.490;2023-01-28T04:46:31;97460;;;3.1;61.5
68628;BME280;55611;48.602;9.490;2023-01-28T04:51:32;97470;;;3;61.5
68628;BME280;55611;48.602;9.490;2023-01-28T04:54:02;97470;;;3.1;62
68628;BME280;55611;48.602;9.490;2023-01-28T04:59:03;97470;;;3.1;62
68628;BME280;55611;48.602;9.490;2023-01-28T05:06:34;97470;;;3.2;62
68628;BME280;55611;48.602;9.490;2023-01-28T05:09:05;97470;;;3.2;62
68628;BME280;55611;48.602;9.490;2023-01-28T05:16:36;97470;;;3.1;62
68628;BME280;55611;48.602;9.490;2023-01-28T05:21:37;97480;;;3.2;62
68628;BME280;55611;48.602;9.490;2023-01-28T05:26:38;97480;;;3.2;62
68628;BME280;55611;48.602;9.490;2023-01-28T05:36:39;97480;;;3.3;61.5
68628;BME280;55611;48.602;9.490;2023-01-28T05:49:11;97480;;;3.4;61.5
68628;BME280;55611;48.602;9.490;2023-01-28T05:51:41;97480;;;3.4;61.5
68628;BME280;55611;48.602;9.490;2023-01-28T05:54:12;97480;;;3.3;61.5
68628;BME280;55611;48.602;9.490;2023-01-28T05:56:42;97480;;;3.4;61.5
68628;BME280;55611;48.602;9.490;2023-01-28T06:01:43;97480;;;3.4;61.5
68628;BME280;55611;48.602;9.490;2023-01-28T06:04:13;97480;;;3.3;61.5
68628;BME280;55611;48.602;9.490;2023-01-28T06:06:44;97480;;;3.4;61.5
68628;BME280;55611;48.602;9.490;2023-01-28T06:09:14;97490;;;3.4;61.5
68628;BME280;55611;48.602;9.490;2023-01-28T06:11:45;97490;;;3.4;61.5
68628;BME280;55611;48.602;9.490;2023-01-28T06:16:46;97500;;;3.3;61.5
68628;BME280;55611;48.602;9.490;2023-01-28T06:19:16;97490;;;3.3;61.5
68628;BME280;55611;48.602;9.490;2023-01-28T06:26:47;97500;;;3.4;61.5
68628;BME280;55611;48.602;9.490;2023-01-28T06:29:18;97500;;;3.3;61.5
68628;BME280;55611;48.602;9.490;2023-01-28T06:31:48;97510;;;3.3;61.5
68628;BME280;55611;48.602;9.490;2023-01-28T06:34:19;97510;;;3.3;61.5
68628;BME280;55611;48.602;9.490;2023-01-28T06:44:20;97530;;;3.4;61.5
68628;BME280;55611;48.602;9.490;2023-01-28T06:46:51;97540;;;3.4;61.5
68628;BME280;55611;48.602;9.490;2023-01-28T06:49:21;97540;;;3.4;61.5
68628;BME280;55611;48.602;9.490;2023-01-28T06:51:52;97540;;;3.4;61.5
68628;BME280;55611;48.602;9.490;2023-01-28T06:59:23;97550;;;3.5;61.5
68628;BME280;55611;48.602;9.490;2023-01-28T07:01:53;97550;;;3.5;61.5
68628;BME280;55611;48.602;9.490;2023-01-28T07:04:24;97550;;;3.5;61.5
68628;BME280;55611;48.602;9.490;2023-01-28T07:06:55;97550;;;3.5;61.5
68628;BME280;55611;48.602;9.490;2023-01-28T07:11:55;97560;;;3.5;61.5
68628;BME280;55611;48.602;9.490;2023-01-28T07:26:57;97570;;;3.5;61.5
68628;BME280;55611;48.602;9.490;2023-01-28T07:29:28;97570;;;3.5;61.5
68628;BME280;55611;48.602;9.490;2023-01-28T07:31:58;97570;;;3.5;61.5
68628;BME280;55611;48.602;9.490;2023-01-28T07:36:59;97570;;;3.5;61.5
68628;BME280;55611;48.602;9.490;2023-01-28T07:52:01;97570;;;3.8;61.5
68628;BME280;55611;48.602;9.490;2023-01-28T07:54:32;97570;;;3.7;61.5
68628;BME280;55611;48.602;9.490;2023-01-28T07:57:06;97580;;;3.7;61.5
68628;BME280;55611;48.602;9.490;2023-01-28T08:09:34;97590;;;3.8;61.5
68628;BME280;55611;48.602;9.490;2023-01-28T08:17:05;97600;;;3.8;61.5
68628;BME280;55611;48.602;9.490;2023-01-28T08:22:06;97610;;;3.7;62
68628;BME280;55611;48.602;9.490;2023-01-28T08:24:36;97610;;;3.8;62
68628;BME280;55611;48.602;9.490;2023-01-28T08:27:07;97610;;;3.8;62
68628;BME280;55611;48.602;9.490;2023-01-28T08:29:37;97610;;;3.9;62
68628;BME280;55611;48.602;9.490;2023-01-28T08:32:08;97610;;;3.8;62
68628;BME280;55611;48.602;9.490;2023-01-28T08:37:09;97600;;;3.9;62
68628;BME280;55611;48.602;9.490;2023-01-28T08:42:10;97600;;;4;62
68628;BME280;55611;48.602;9.490;2023-01-28T08:44:40;97600;;;4.1;62
68628;BME280;55611;48.602;9.490;2023-01-28T08:47:11;97600;;;4.2;62
68628;BME280;55611;48.602;9.490;2023-01-28T08:49:41;97600;;;4.2;62
68628;BME280;55611;48.602;9.490;2023-01-28T08:52:12;97600;;;4.2;62
68628;BME280;55611;48.602;9.490;2023-01-28T08:57:12;97610;;;4.3;62
68628;BME280;55611;48.602;9.490;2023-01-28T09:02:13;97610;;;4.3;62
68628;BME280;55611;48.602;9.490;2023-01-28T09:04:44;97620;;;4.3;62
68628;BME280;55611;48.602;9.490;2023-01-28T09:07:14;97620;;;4.2;62
68628;BME280;55611;48.602;9.490;2023-01-28T09:09:45;97620;;;4.2;62
68628;BME280;55611;48.602;9.490;2023-01-28T09:12:15;97620;;;4.2;62
68628;BME280;55611;48.602;9.490;2023-01-28T09:17:16;97630;;;4.2;62.5
68628;BME280;55611;48.602;9.490;2023-01-28T09:27:17;97640;;;4.2;62.5
68628;BME280;55611;48.602;9.490;2023-01-28T09:29:48;97640;;;4.4;62.5
68628;BME280;55611;48.602;9.490;2023-01-28T09:34:49;97640;;;4.5;62
68628;BME280;55611;48.602;9.490;2023-01-28T09:37:19;97640;;;4.5;62
68628;BME280;55611;48.602;9.490;2023-01-28T09:47:23;97650;;;4.5;62.5
68628;BME280;55611;48.602;9.490;2023-01-28T09:52:22;97650;;;4.5;62.5
68628;BME280;55611;48.602;9.490;2023-01-28T09:54:58;97650;;;4.5;62.5
68628;BME280;55611;48.602;9.490;2023-01-28T09:57:24;97660;;;4.4;62.5
68628;BME280;55611;48.602;9.490;2023-01-28T09:59:53;97660;;;4.5;62.5
68628;BME280;55611;48.602;9.490;2023-01-28T10:04:58;97660;;;4.5;62.5
68628;BME280;55611;48.602;9.490;2023-01-28T10:07:58;97660;;;4.5;62.5
68628;BME280;55611;48.602;9.490;2023-01-28T10:10:01;97650;;;4.5;62.5
68628;BME280;55611;48.602;9.490;2023-01-28T10:12:37;97660;;;4.5;62.5
68628;BME280;55611;48.602;9.490;2023-01-28T10:15:01;97660;;;4.7;62.5
68628;BME280;55611;48.602;9.490;2023-01-28T10:17:28;97660;;;4.8;62.5
68628;BME280;55611;48.602;9.490;2023-01-28T10:19:59;97650;;;4.9;62.5
68628;BME280;55611;48.602;9.490;2023-01-28T10:22:29;97650;;;4.9;62.5
68628;BME280;55611;48.602;9.490;2023-01-28T10:25:01;97650;;;4.9;62.5
68628;BME280;55611;48.602;9.490;2023-01-28T10:27:29;97640;;;5;62.5
68628;BME280;55611;48.602;9.490;2023-01-28T10:29:59;97640;;;5;62.5
68628;BME280;55611;48.602;9.490;2023-01-28T10:32:31;97640;;;5.1;62.5
68628;BME280;55611;48.602;9.490;2023-01-28T10:35:00;97640;;;5.2;62.5
68628;BME280;55611;48.602;9.490;2023-01-28T10:37:32;97630;;;5.2;62.5
68628;BME280;55611;48.602;9.490;2023-01-28T10:40:02;97630;;;5.2;62.5
68628;BME280;55611;48.602;9.490;2023-01-28T10:42:33;97620;;;5.2;62.5
68628;BME280;55611;48.602;9.490;2023-01-28T10:45:06;97620;;;5.3;62.5
68628;BME280;55611;48.602;9.490;2023-01-28T10:47:37;97620;;;5.2;62.5
68628;BME280;55611;48.602;9.490;2023-01-28T10:50:03;97620;;;5.3;62.5
68628;BME280;55611;48.602;9.490;2023-01-28T10:52:34;97630;;;5.3;62.5
68628;BME280;55611;48.602;9.490;2023-01-28T10:55:04;97630;;;5.3;62.5
68628;BME280;55611;48.602;9.490;2023-01-28T11:00:10;97630;;;5.2;62.5
68628;BME280;55611;48.602;9.490;2023-01-28T11:02:36;97630;;;5.2;62.5
68628;BME280;55611;48.602;9.490;2023-01-28T11:05:14;97630;;;5.2;62.5
68628;BME280;55611;48.602;9.490;2023-01-28T11:07:37;97630;;;5;62.5
68628;BME280;55611;48.602;9.490;2023-01-28T11:12:39;97630;;;5.3;62.5
68628;BME280;55611;48.602;9.490;2023-01-28T11:17:39;97630;;;5.2;62.5
68628;BME280;55611;48.602;9.490;2023-01-28T11:20:11;97630;;;5.1;63
68628;BME280;55611;48.602;9.490;2023-01-28T11:22:41;97630;;;5.3;62.5
68628;BME280;55611;48.602;9.490;2023-01-28T11:25:15;97630;;;5.4;62.5
68628;BME280;55611;48.602;9.490;2023-01-28T11:27:45;97640;;;5.3;62.5
68628;BME280;55611;48.602;9.490;2023-01-28T11:30:42;97630;;;5.2;62.5
68628;BME280;55611;48.602;9.490;2023-01-28T11:32:42;97640;;;5.3;62.5
68628;BME280;55611;48.602;9.490;2023-01-28T11:35:23;97640;;;5;62.5
68628;BME280;55611;48.602;9.490;2023-01-28T11:37:46;97640;;;5;62.5
68628;BME280;55611;48.602;9.490;2023-01-28T11:45:15;97650;;;4.9;62.5
68628;BME280;55611;48.602;9.490;2023-01-28T11:50:17;97650;;;4.9;62.5
68628;BME280;55611;48.602;9.490;2023-01-28T12:00:24;97650;;;4.8;62.5
68628;BME280;55611;48.602;9.490;2023-01-28T12:02:48;97650;;;4.7;62.5
68628;BME280;55611;48.602;9.490;2023-01-28T12:13:55;97630;;;4.7;62.5
68628;BME280;55611;48.602;9.490;2023-01-28T12:17:54;97630;;;4.7;62.5
68628;BME280;55611;48.602;9.490;2023-01-28T12:27:53;97630;;;4.7;62.5
68628;BME280;55611;48.602;9.490;2023-01-28T12:30:24;97630;;;4.8;62.5
68628;BME280;55611;48.602;9.490;2023-01-28T12:35:31;97640;;;4.8;62.5
68628;BME280;55611;48.602;9.490;2023-01-28T12:37:57;97640;;;4.7;62.5
68628;BME280;55611;48.602;9.490;2023-01-28T12:40:32;97630;;;4.7;62.5
68628;BME280;55611;48.602;9.490;2023-01-28T12:42:55;97630;;;4.7;62.5
68628;BME280;55611;48.602;9.490;2023-01-28T12:45:26;97640;;;4.8;62.5
68628;BME280;55611;48.602;9.490;2023-01-28T12:47:57;97630;;;4.8;62.5
68628;BME280;55611;48.602;9.490;2023-01-28T12:50:27;97630;;;4.8;62.5
68628;BME280;55611;48.602;9.490;2023-01-28T12:52:57;97640;;;5;62.5
68628;BME280;55611;48.602;9.490;2023-01-28T12:55:33;97640;;;5.1;62.5
68628;BME280;55611;48.602;9.490;2023-01-28T12:57:57;97640;;;5;62.5
68628;BME280;55611;48.602;9.490;2023-01-28T13:00:29;97630;;;5;62.5
68628;BME280;55611;48.602;9.490;2023-01-28T13:03:03;97630;;;5.1;62.5
68628;BME280;55611;48.602;9.490;2023-01-28T13:05:30;97620;;;5.2;62.5
68628;BME280;55611;48.602;9.490;2023-01-28T13:08:01;97610;;;5.3;62.5
68628;BME280;55611;48.602;9.490;2023-01-28T13:10:45;97610;;;5.2;62.5
68628;BME280;55611;48.602;9.490;2023-01-28T13:13:00;97610;;;5.1;62
68628;BME280;55611;48.602;9.490;2023-01-28T13:15:30;97620;;;5;62.5
68628;BME280;55611;48.602;9.490;2023-01-28T13:18:02;97620;;;5.1;62
68628;BME280;55611;48.602;9.490;2023-01-28T13:21:03;97620;;;5.1;62.5
68628;BME280;55611;48.602;9.490;2023-01-28T13:25:35;97620;;;5.2;62.5
68628;BME280;55611;48.602;9.490;2023-01-28T13:28:04;97630;;;5.2;62.5
68628;BME280;55611;48.602;9.490;2023-01-28T13:30:34;97630;;;5.2;62.5
68628;BME280;55611;48.602;9.490;2023-01-28T13:33:05;97630;;;5.1;62.5
68628;BME280;55611;48.602;9.490;2023-01-28T13:35:35;97630;;;5.2;62.5
68628;BME280;55611;48.602;9.490;2023-01-28T13:38:06;97640;;;5.2;62.5
68628;BME280;55611;48.602;9.490;2023-01-28T13:40:35;97640;;;5.1;62.5
68628;BME280;55611;48.602;9.490;2023-01-28T13:43:23;97640;;;5.2;62.5
68628;BME280;55611;48.602;9.490;2023-01-28T13:45:36;97630;;;5.2;62
68628;BME280;55611;48.602;9.490;2023-01-28T13:49:11;97630;;;5;62.5
68628;BME280;55611;48.602;9.490;2023-01-28T13:50:38;97640;;;5;62.5
68628;BME280;55611;48.602;9.490;2023-01-28T13:55:38;97640;;;5;62.5
68628;BME280;55611;48.602;9.490;2023-01-28T13:58:16;97640;;;4.9;62.5
68628;BME280;55611;48.602;9.490;2023-01-28T14:03:18;97640;;;4.8;62.5
68628;BME280;55611;48.602;9.490;2023-01-28T14:05:46;97640;;;4.7;62.5
68628;BME280;55611;48.602;9.490;2023-01-28T14:08:46;97650;;;4.8;62.5
68628;BME280;55611;48.602;9.490;2023-01-28T14:10:46;97640;;;4.9;62.5
68628;BME280;55611;48.602;9.490;2023-01-28T14:13:22;97650;;;5.1;62
68628;BME280;55611;48.602;9.490;2023-01-28T14:15:47;97650;;;5;62
68628;BME280;55611;48.602;9.490;2023-01-28T14:18:14;97650;;;5;62
68628;BME280;55611;48.602;9.490;2023-01-28T14:20:44;97650;;;4.9;62
68628;BME280;55611;48.602;9.490;2023-01-28T14:23:15;97660;;;4.9;62
68628;BME280;55611;48.602;9.490;2023-01-28T14:25:51;97660;;;4.9;62
68628;BME280;55611;48.602;9.490;2023-01-28T14:28:18;97660;;;5;62
68628;BME280;55611;48.602;9.490;2023-01-28T14:30:47;97670;;;5;62
68628;BME280;55611;48.602;9.490;2023-01-28T14:33:16;97670;;;4.9;62
68628;BME280;55611;48.602;9.490;2023-01-28T14:35:47;97670;;;4.8;62
68628;BME280;55611;48.602;9.490;2023-01-28T14:38:18;97670;;;4.7;62
68628;BME280;55611;48.602;9.490;2023-01-28T14:40:48;97670;;;4.8;62
68628;BME280;55611;48.602;9.490;2023-01-28T14:43:22;97680;;;4.9;62
68628;BME280;55611;48.602;9.490;2023-01-28T14:45:55;97680;;;4.8;62
68628;BME280;55611;48.602;9.490;2023-01-28T14:48:29;97680;;;4.8;62
68628;BME280;55611;48.602;9.490;2023-01-28T14:50:54;97680;;;4.8;62
68628;BME280;55611;48.602;9.490;2023-01-28T14:53:25;97680;;;4.8;62
68628;BME280;55611;48.602;9.490;2023-01-28T14:55:55;97690;;;4.8;62
68628;BME280;55611;48.602;9.490;2023-01-28T14:58:23;97690;;;4.7;62
68628;BME280;55611;48.602;9.490;2023-01-28T15:00:53;97690;;;4.8;62
68628;BME280;55611;48.602;9.490;2023-01-28T15:03:22;97700;;;4.8;62
68628;BME280;55611;48.602;9.490;2023-01-28T15:06:25;97690;;;4.7;62
68628;BME280;55611;48.602;9.490;2023-01-28T15:08:23;97700;;;4.6;62
68628;BME280;55611;48.602;9.490;2023-01-28T15:10:54;97700;;;4.6;62
68628;BME280;55611;48.602;9.490;2023-01-28T15:13:25;97710;;;4.6;62
68628;BME280;55611;48.602;9.490;2023-01-28T15:15:55;97710;;;4.7;62
68628;BME280;55611;48.602;9.490;2023-01-28T15:18:29;97720;;;4.6;62
68628;BME280;55611;48.602;9.490;2023-01-28T15:20:56;97700;;;4.5;62
68628;BME280;55611;48.602;9.490;2023-01-28T15:23:28;97710;;;4.5;62
68628;BME280;55611;48.602;9.490;2023-01-28T15:25:57;97710;;;4.4;62
68628;BME280;55611;48.602;9.490;2023-01-28T15:28:29;97720;;;4.4;62
68628;BME280;55611;48.602;9.490;2023-01-28T15:30:58;97730;;;4.4;62
68628;BME280;55611;48.602;9.490;2023-01-28T15:33:28;97720;;;4.4;62
68628;BME280;55611;48.602;9.490;2023-01-28T15:35:59;97720;;;4.4;62
68628;BME280;55611;48.602;9.490;2023-01-28T15:38:29;97730;;;4.3;62
68628;BME280;55611;48.602;9.490;2023-01-28T15:41:00;97730;;;4.4;62
68628;BME280;55611;48.602;9.490;2023-01-28T15:43:32;97730;;;4.4;62
68628;BME280;55611;48.602;9.490;2023-01-28T15:46:01;97740;;;4.4;62
68628;BME280;55611;48.602;9.490;2023-01-28T15:48:32;97740;;;4.4;62
68628;BME280;55611;48.602;9.490;2023-01-28T15:51:04;97740;;;4.4;62
68628;BME280;55611;48.602;9.490;2023-01-28T15:53:35;97750;;;4.4;62
68628;BME280;55611;48.602;9.490;2023-01-28T15:56:04;97750;;;4.5;62
68628;BME280;55611;48.602;9.490;2023-01-28T15:58:34;97750;;;4.5;62
68628;BME280;55611;48.602;9.490;2023-01-28T16:01:12;97760;;;4.4;62
68628;BME280;55611;48.602;9.490;2023-01-28T16:03:35;97760;;;4.3;62
68628;BME280;55611;48.602;9.490;2023-01-28T16:06:09;97760;;;4.3;62
68628;BME280;55611;48.602;9.490;2023-01-28T16:08:37;97760;;;4.3;62
68628;BME280;55611;48.602;9.490;2023-01-28T16:11:07;97770;;;4.3;62
68628;BME280;55611;48.602;9.490;2023-01-28T16:13:40;97760;;;4.4;62
68628;BME280;55611;48.602;9.490;2023-01-28T16:16:07;97760;;;4.5;61.5
68628;BME280;55611;48.602;9.490;2023-01-28T16:18:40;97760;;;4.5;61.5
68628;BME280;55611;48.602;9.490;2023-01-28T16:21:10;97770;;;4.4;61.5
68628;BME280;55611;48.602;9.490;2023-01-28T16:23:39;97770;;;4.4;61.5
68628;BME280;55611;48.602;9.490;2023-01-28T16:26:25;97770;;;4.4;61.5
68628;BME280;55611;48.602;9.490;2023-01-28T16:28:40;97780;;;4.5;61.5
68628;BME280;55611;48.602;9.490;2023-01-28T16:31:10;97780;;;4.5;61.5
68628;BME280;55611;48.602;9.490;2023-01-28T16:33:41;97780;;;4.4;61.5
68628;BME280;55611;48.602;9.490;2023-01-28T16:36:12;97790;;;4.5;61.5
68628;BME280;55611;48.602;9.490;2023-01-28T16:38:42;97790;;;4.5;61.5
68628;BME280;55611;48.602;9.490;2023-01-28T16:41:13;97790;;;4.4;61.5
68628;BME280;55611;48.602;9.490;2023-01-28T16:43:43;97790;;;4.5;61.5
68628;BME280;55611;48.602;9.490;2023-01-28T16:46:13;97790;;;4.6;61.5
68628;BME280;55611;48.602;9.490;2023-01-28T16:48:44;97790;;;4.6;61.5
68628;BME280;55611;48.602;9.490;2023-01-28T16:51:15;97780;;;4.6;61.5
68628;BME280;55611;48.602;9.490;2023-01-28T16:53:45;97790;;;4.6;61.5
68628;BME280;55611;48.602;9.490;2023-01-28T16:56:16;97790;;;4.7;61.5
68628;BME280;55611;48.602;9.490;2023-01-28T16:58:46;97790;;;4.7;61.5
68628;BME280;55611;48.602;9.490;2023-01-28T17:01:16;97790;;;4.6;61.5
68628;BME280;55611;48.602;9.490;2023-01-28T17:06:18;97790;;;4.5;61.5
68628;BME280;55611;48.602;9.490;2023-01-28T17:08:48;97800;;;4.6;61.5
68628;BME280;55611;48.602;9.490;2023-01-28T17:11:18;97800;;;4.6;61.5
68628;BME280;55611;48.602;9.490;2023-01-28T17:13:49;97800;;;4.5;61.5
68628;BME280;55611;48.602;9.490;2023-01-28T17:16:20;97800;;;4.6;61.5
68628;BME280;55611;48.602;9.490;2023-01-28T17:18:51;97800;;;4.6;61.5
68628;BME280;55611;48.602;9.490;2023-01-28T17:21:21;97800;;;4.6;61.5
68628;BME280;55611;48.602;9.490;2023-01-28T17:23:51;97800;;;4.6;61.5
68628;BME280;55611;48.602;9.490;2023-01-28T17:26:22;97790;;;4.6;61.5
68628;BME280;55611;48.602;9.490;2023-01-28T17:28:52;97800;;;4.6;61.5
68628;BME280;55611;48.602;9.490;2023-01-28T17:31:23;97800;;;4.6;61.5
68628;BME280;55611;48.602;9.490;2023-01-28T17:33:54;97800;;;4.6;61.5
68628;BME280;55611;48.602;9.490;2023-01-28T17:36:24;97790;;;4.6;61.5
68628;BME280;55611;48.602;9.490;2023-01-28T17:38:54;97790;;;4.6;61.5
68628;BME280;55611;48.602;9.490;2023-01-28T17:41:25;97790;;;4.6;61.5
68628;BME280;55611;48.602;9.490;2023-01-28T17:43:55;97800;;;4.6;61.5
68628;BME280;55611;48.602;9.490;2023-01-28T17:46:26;97810;;;4.6;61.5
68628;BME280;55611;48.602;9.490;2023-01-28T17:48:56;97810;;;4.5;61.5
68628;BME280;55611;48.602;9.490;2023-01-28T17:51:27;97810;;;4.6;61.5
68628;BME280;55611;48.602;9.490;2023-01-28T17:53:57;97810;;;4.5;61.5
68628;BME280;55611;48.602;9.490;2023-01-28T17:56:28;97810;;;4.6;61.5
68628;BME280;55611;48.602;9.490;2023-01-28T17:58:59;97820;;;4.5;61.5
68628;BME280;55611;48.602;9.490;2023-01-28T18:01:29;97820;;;4.5;61.5
68628;BME280;55611;48.602;9.490;2023-01-28T18:03:59;97820;;;4.5;61.5
68628;BME280;55611;48.602;9.490;2023-01-28T18:06:31;97820;;;4.5;61.5
68628;BME280;55611;48.602;9.490;2023-01-28T18:09:00;97820;;;4.5;61.5
68628;BME280;55611;48.602;9.490;2023-01-28T18:11:31;97810;;;4.5;61.5
68628;BME280;55611;48.602;9.490;2023-01-28T18:14:01;97820;;;4.5;61.5
68628;BME280;55611;48.602;9.490;2023-01-28T18:16:32;97810;;;4.6;61.5
68628;BME280;55611;48.602;9.490;2023-01-28T18:19:02;97820;;;4.5;61.5
68628;BME280;55611;48.602;9.490;2023-01-28T18:21:34;97820;;;4.5;61.5
68628;BME280;55611;48.602;9.490;2023-01-28T18:24:04;97830;;;4.5;61.5
68628;BME280;55611;48.602;9.490;2023-01-28T18:26:34;97830;;;4.5;61.5
68628;BME280;55611;48.602;9.490;2023-01-28T18:29:04;97820;;;4.5;61.5
68628;BME280;55611;48.602;9.490;2023-01-28T18:31:35;97820;;;4.6;61.5
68628;BME280;55611;48.602;9.490;2023-01-28T18:34:05;97830;;;4.6;61.5
68628;BME280;55611;48.602;9.490;2023-01-28T18:36:36;97830;;;4.6;61.5
68628;BME280;55611;48.602;9.490;2023-01-28T18:39:09;97830;;;4.5;61.5
68628;BME280;55611;48.602;9.490;2023-01-28T18:41:37;97830;;;4.4;61.5
68628;BME280;55611;48.602;9.490;2023-01-28T18:44:08;97830;;;4.5;61.5
68628;BME280;55611;48.602;9.490;2023-01-28T18:46:38;97830;;;4.4;61.5
68628;BME280;55611;48.602;9.490;2023-01-28T18:49:09;97820;;;4.3;61.5
68628;BME280;55611;48.602;9.490;2023-01-28T18:51:39;97820;;;4.4;61.5
68628;BME280;55611;48.602;9.490;2023-01-28T18:54:11;97810;;;4.4;61.5
68628;BME280;55611;48.602;9.490;2023-01-28T18:56:40;97810;;;4.5;61.5
68628;BME280;55611;48.602;9.490;2023-01-28T18:59:11;97810;;;4.5;61.5
68628;BME280;55611;48.602;9.490;2023-01-28T19:01:41;97820;;;4.5;61.5
68628;BME280;55611;48.602;9.490;2023-01-28T19:04:12;97820;;;4.5;61.5
68628;BME280;55611;48.602;9.490;2023-01-28T19:06:42;97820;;;4.5;61.5
68628;BME280;55611;48.602;9.490;2023-01-28T19:11:43;97820;;;4.5;61
68628;BME280;55611;48.602;9.490;2023-01-28T19:14:14;97820;;;4.5;61.5
68628;BME280;55611;48.602;9.490;2023-01-28T19:16:44;97830;;;4.5;61.5
68628;BME280;55611;48.602;9.490;2023-01-28T19:19:15;97830;;;4.5;61.5
68628;BME280;55611;48.602;9.490;2023-01-28T19:21:45;97830;;;4.5;61
68628;BME280;55611;48.602;9.490;2023-01-28T19:24:16;97830;;;4.4;61
68628;BME280;55611;48.602;9.490;2023-01-28T19:26:46;97840;;;4.4;61
68628;BME280;55611;48.602;9.490;2023-01-28T19:29:17;97840;;;4.4;61
68628;BME280;55611;48.602;9.490;2023-01-28T19:31:47;97840;;;4.4;61
68628;BME280;55611;48.602;9.490;2023-01-28T19:34:18;97850;;;4.4;61
68628;BME280;55611;48.602;9.490;2023-01-28T19:36:48;97840;;;4.3;61
68628;BME280;55611;48.602;9.490;2023-01-28T19:39:19;97840;;;4.3;61
68628;BME280;55611;48.602;9.490;2023-01-28T19:41:49;97850;;;4.3;61